Terminal Aerodrome Forecast
Issued by NWS Nashville, TN

Home | Current Version | Previous Version | Text Only | Print | Product List | Glossary On
Versions: 1 2 3 4 5 6 7 8 9 10 11 12 13
000
FTUS44 KOHX 022320
TAFCSV
TAF
KCSV 022320Z 0300/0324 00000KT P6SM SKC
      TEMPO 0308/0312 4SM BR
     FM031600 28006KT P6SM SCT050=

USA.gov is the U.S. government's official web portal to all federal, state and local government web resources and services.